sensor_id;sensor_type;location;lat;lon;timestamp;P1;durP1;ratioP1;P2;durP2;ratioP2
34876;SDS011;21086;44.780;17.194;2023-04-01T00:01:46;3.65;;;1.38;;
34876;SDS011;21086;44.780;17.194;2023-04-01T00:04:13;4.63;;;1.55;;
34876;SDS011;21086;44.780;17.194;2023-04-01T00:06:42;2.00;;;1.15;;
34876;SDS011;21086;44.780;17.194;2023-04-01T00:09:09;4.90;;;1.60;;
34876;SDS011;21086;44.780;17.194;2023-04-01T00:11:36;2.92;;;1.23;;
34876;SDS011;21086;44.780;17.194;2023-04-01T00:14:03;4.78;;;1.33;;
34876;SDS011;21086;44.780;17.194;2023-04-01T00:16:31;3.65;;;1.52;;
34876;SDS011;21086;44.780;17.194;2023-04-01T00:18:58;3.45;;;1.17;;
34876;SDS011;21086;44.780;17.194;2023-04-01T00:21:26;3.83;;;1.35;;
34876;SDS011;21086;44.780;17.194;2023-04-01T00:23:53;6.32;;;1.50;;
34876;SDS011;21086;44.780;17.194;2023-04-01T00:26:20;2.80;;;1.40;;
34876;SDS011;21086;44.780;17.194;2023-04-01T00:28:48;3.78;;;1.25;;
34876;SDS011;21086;44.780;17.194;2023-04-01T00:31:16;2.88;;;1.58;;
34876;SDS011;21086;44.780;17.194;2023-04-01T00:33:43;4.10;;;1.67;;
34876;SDS011;21086;44.780;17.194;2023-04-01T00:36:12;4.97;;;1.75;;
34876;SDS011;21086;44.780;17.194;2023-04-01T00:38:41;3.45;;;1.58;;
34876;SDS011;21086;44.780;17.194;2023-04-01T00:41:10;5.18;;;1.88;;
34876;SDS011;21086;44.780;17.194;2023-04-01T00:43:42;9.73;;;2.67;;
34876;SDS011;21086;44.780;17.194;2023-04-01T00:46:10;4.35;;;1.52;;
34876;SDS011;21086;44.780;17.194;2023-04-01T00:49:01;4.00;;;1.67;;
34876;SDS011;21086;44.780;17.194;2023-04-01T00:51:25;2.03;;;1.00;;
34876;SDS011;21086;44.780;17.194;2023-04-01T00:53:56;4.20;;;1.35;;
34876;SDS011;21086;44.780;17.194;2023-04-01T00:56:30;2.50;;;1.25;;
34876;SDS011;21086;44.780;17.194;2023-04-01T00:59:03;3.90;;;1.45;;
34876;SDS011;21086;44.780;17.194;2023-04-01T01:01:35;2.13;;;1.00;;
34876;SDS011;21086;44.780;17.194;2023-04-01T01:04:02;2.92;;;1.33;;
34876;SDS011;21086;44.780;17.194;2023-04-01T01:12:02;3.40;;;1.17;;
34876;SDS011;21086;44.780;17.194;2023-04-01T01:37:32;2.55;;;1.05;;
34876;SDS011;21086;44.780;17.194;2023-04-01T01:40:01;3.50;;;1.38;;
34876;SDS011;21086;44.780;17.194;2023-04-01T01:42:31;3.22;;;1.27;;
34876;SDS011;21086;44.780;17.194;2023-04-01T01:45:02;2.50;;;1.40;;
34876;SDS011;21086;44.780;17.194;2023-04-01T01:47:31;1.08;;;0.85;;
34876;SDS011;21086;44.780;17.194;2023-04-01T01:50:01;1.52;;;0.60;;
34876;SDS011;21086;44.780;17.194;2023-04-01T01:52:29;1.67;;;0.80;;
34876;SDS011;21086;44.780;17.194;2023-04-01T01:54:57;2.17;;;0.80;;
34876;SDS011;21086;44.780;17.194;2023-04-01T01:57:34;1.52;;;0.90;;
34876;SDS011;21086;44.780;17.194;2023-04-01T02:00:08;1.63;;;0.70;;
34876;SDS011;21086;44.780;17.194;2023-04-01T02:02:41;1.45;;;0.70;;
34876;SDS011;21086;44.780;17.194;2023-04-01T02:05:10;1.55;;;0.73;;
34876;SDS011;21086;44.780;17.194;2023-04-01T02:07:46;1.98;;;0.90;;
34876;SDS011;21086;44.780;17.194;2023-04-01T02:10:18;3.70;;;1.63;;
34876;SDS011;21086;44.780;17.194;2023-04-01T02:12:47;3.58;;;1.80;;
34876;SDS011;21086;44.780;17.194;2023-04-01T02:15:17;7.43;;;2.45;;
34876;SDS011;21086;44.780;17.194;2023-04-01T02:17:46;2.97;;;1.80;;
34876;SDS011;21086;44.780;17.194;2023-04-01T02:20:15;4.40;;;1.50;;
34876;SDS011;21086;44.780;17.194;2023-04-01T02:22:53;2.90;;;1.40;;
34876;SDS011;21086;44.780;17.194;2023-04-01T02:25:30;1.92;;;0.90;;
34876;SDS011;21086;44.780;17.194;2023-04-01T02:28:02;4.03;;;1.10;;
34876;SDS011;21086;44.780;17.194;2023-04-01T02:30:33;0.82;;;0.55;;
34876;SDS011;21086;44.780;17.194;2023-04-01T02:33:03;2.13;;;0.80;;
34876;SDS011;21086;44.780;17.194;2023-04-01T02:35:40;2.22;;;1.23;;
34876;SDS011;21086;44.780;17.194;2023-04-01T02:38:08;2.97;;;1.30;;
34876;SDS011;21086;44.780;17.194;2023-04-01T02:40:42;2.95;;;1.40;;
34876;SDS011;21086;44.780;17.194;2023-04-01T02:43:22;3.22;;;1.48;;
34876;SDS011;21086;44.780;17.194;2023-04-01T02:45:49;3.72;;;1.60;;
34876;SDS011;21086;44.780;17.194;2023-04-01T02:48:16;2.10;;;1.00;;
34876;SDS011;21086;44.780;17.194;2023-04-01T02:50:43;2.90;;;1.10;;
34876;SDS011;21086;44.780;17.194;2023-04-01T02:53:10;1.88;;;1.00;;
34876;SDS011;21086;44.780;17.194;2023-04-01T02:55:38;1.60;;;1.23;;
34876;SDS011;21086;44.780;17.194;2023-04-01T02:58:05;1.90;;;1.15;;
34876;SDS011;21086;44.780;17.194;2023-04-01T03:00:32;1.30;;;0.85;;
34876;SDS011;21086;44.780;17.194;2023-04-01T03:02:59;1.55;;;0.68;;
34876;SDS011;21086;44.780;17.194;2023-04-01T03:05:26;1.75;;;0.80;;
34876;SDS011;21086;44.780;17.194;2023-04-01T03:07:54;1.67;;;0.90;;
34876;SDS011;21086;44.780;17.194;2023-04-01T03:10:21;1.10;;;0.60;;
34876;SDS011;21086;44.780;17.194;2023-04-01T03:12:48;2.00;;;0.57;;
34876;SDS011;21086;44.780;17.194;2023-04-01T03:15:15;1.73;;;0.70;;
34876;SDS011;21086;44.780;17.194;2023-04-01T03:17:43;1.08;;;0.60;;
34876;SDS011;21086;44.780;17.194;2023-04-01T03:20:10;0.85;;;0.60;;
34876;SDS011;21086;44.780;17.194;2023-04-01T03:22:38;0.73;;;0.38;;
34876;SDS011;21086;44.780;17.194;2023-04-01T03:25:08;0.65;;;0.60;;
34876;SDS011;21086;44.780;17.194;2023-04-01T03:27:37;0.47;;;0.38;;
34876;SDS011;21086;44.780;17.194;2023-04-01T03:30:04;0.50;;;0.43;;
34876;SDS011;21086;44.780;17.194;2023-04-01T03:32:33;1.42;;;0.30;;
34876;SDS011;21086;44.780;17.194;2023-04-01T03:35:00;0.73;;;0.38;;
34876;SDS011;21086;44.780;17.194;2023-04-01T03:37:27;0.50;;;0.20;;
34876;SDS011;21086;44.780;17.194;2023-04-01T03:39:54;0.20;;;0.20;;
34876;SDS011;21086;44.780;17.194;2023-04-01T03:42:21;0.80;;;0.50;;
34876;SDS011;21086;44.780;17.194;2023-04-01T03:44:48;1.33;;;0.50;;
34876;SDS011;21086;44.780;17.194;2023-04-01T03:47:15;0.98;;;0.50;;
34876;SDS011;21086;44.780;17.194;2023-04-01T03:49:42;0.40;;;0.20;;
34876;SDS011;21086;44.780;17.194;2023-04-01T03:52:09;0.50;;;0.30;;
34876;SDS011;21086;44.780;17.194;2023-04-01T03:54:37;0.50;;;0.38;;
34876;SDS011;21086;44.780;17.194;2023-04-01T03:57:04;2.35;;;0.20;;
34876;SDS011;21086;44.780;17.194;2023-04-01T03:59:32;0.98;;;0.50;;
34876;SDS011;21086;44.780;17.194;2023-04-01T04:01:59;0.85;;;0.40;;
34876;SDS011;21086;44.780;17.194;2023-04-01T04:04:26;0.30;;;0.20;;
34876;SDS011;21086;44.780;17.194;2023-04-01T04:06:54;0.55;;;0.30;;
34876;SDS011;21086;44.780;17.194;2023-04-01T04:09:21;1.25;;;0.30;;
34876;SDS011;21086;44.780;17.194;2023-04-01T04:11:49;0.45;;;0.40;;
34876;SDS011;21086;44.780;17.194;2023-04-01T04:14:16;1.00;;;0.30;;
34876;SDS011;21086;44.780;17.194;2023-04-01T04:16:43;0.52;;;0.40;;
34876;SDS011;21086;44.780;17.194;2023-04-01T04:19:10;0.43;;;0.10;;
34876;SDS011;21086;44.780;17.194;2023-04-01T04:21:37;0.55;;;0.30;;
34876;SDS011;21086;44.780;17.194;2023-04-01T04:24:05;0.20;;;0.10;;
34876;SDS011;21086;44.780;17.194;2023-04-01T04:26:32;0.43;;;0.28;;
34876;SDS011;21086;44.780;17.194;2023-04-01T04:28:59;1.52;;;0.30;;
34876;SDS011;21086;44.780;17.194;2023-04-01T04:31:27;0.85;;;0.50;;
34876;SDS011;21086;44.780;17.194;2023-04-01T04:33:55;0.80;;;0.50;;
34876;SDS011;21086;44.780;17.194;2023-04-01T04:36:22;0.90;;;0.10;;
34876;SDS011;21086;44.780;17.194;2023-04-01T04:38:49;0.93;;;0.20;;
34876;SDS011;21086;44.780;17.194;2023-04-01T04:41:18;0.28;;;0.25;;
34876;SDS011;21086;44.780;17.194;2023-04-01T04:43:52;1.55;;;0.50;;
34876;SDS011;21086;44.780;17.194;2023-04-01T04:46:22;0.93;;;0.60;;
34876;SDS011;21086;44.780;17.194;2023-04-01T04:48:50;1.63;;;0.40;;
34876;SDS011;21086;44.780;17.194;2023-04-01T04:51:18;0.57;;;0.40;;
34876;SDS011;21086;44.780;17.194;2023-04-01T04:53:45;0.75;;;0.40;;
34876;SDS011;21086;44.780;17.194;2023-04-01T04:56:16;1.65;;;0.40;;
34876;SDS011;21086;44.780;17.194;2023-04-01T04:58:44;0.63;;;0.35;;
34876;SDS011;21086;44.780;17.194;2023-04-01T05:01:13;0.98;;;0.55;;
34876;SDS011;21086;44.780;17.194;2023-04-01T05:03:41;1.35;;;0.70;;
34876;SDS011;21086;44.780;17.194;2023-04-01T05:06:09;0.55;;;0.30;;
34876;SDS011;21086;44.780;17.194;2023-04-01T05:08:39;1.17;;;0.60;;
34876;SDS011;21086;44.780;17.194;2023-04-01T05:11:15;1.02;;;0.47;;
34876;SDS011;21086;44.780;17.194;2023-04-01T05:13:44;0.40;;;0.30;;
34876;SDS011;21086;44.780;17.194;2023-04-01T05:16:13;1.20;;;0.60;;
34876;SDS011;21086;44.780;17.194;2023-04-01T05:18:42;1.35;;;0.88;;
34876;SDS011;21086;44.780;17.194;2023-04-01T05:21:10;2.03;;;1.15;;
34876;SDS011;21086;44.780;17.194;2023-04-01T05:23:39;1.15;;;0.60;;
34876;SDS011;21086;44.780;17.194;2023-04-01T05:26:07;1.45;;;0.70;;
34876;SDS011;21086;44.780;17.194;2023-04-01T05:28:36;2.38;;;0.90;;
34876;SDS011;21086;44.780;17.194;2023-04-01T05:31:05;1.60;;;1.00;;
34876;SDS011;21086;44.780;17.194;2023-04-01T05:33:32;2.67;;;1.77;;
34876;SDS011;21086;44.780;17.194;2023-04-01T05:36:12;3.17;;;2.15;;
34876;SDS011;21086;44.780;17.194;2023-04-01T05:38:41;2.47;;;1.80;;
34876;SDS011;21086;44.780;17.194;2023-04-01T05:41:12;1.70;;;1.23;;
34876;SDS011;21086;44.780;17.194;2023-04-01T05:43:40;1.30;;;1.08;;
34876;SDS011;21086;44.780;17.194;2023-04-01T05:46:08;0.73;;;0.50;;
34876;SDS011;21086;44.780;17.194;2023-04-01T05:48:36;1.88;;;0.75;;
34876;SDS011;21086;44.780;17.194;2023-04-01T05:51:04;1.10;;;0.77;;
34876;SDS011;21086;44.780;17.194;2023-04-01T05:53:31;1.30;;;0.93;;
34876;SDS011;21086;44.780;17.194;2023-04-01T05:56:01;2.28;;;1.70;;
34876;SDS011;21086;44.780;17.194;2023-04-01T05:58:29;2.67;;;1.80;;
34876;SDS011;21086;44.780;17.194;2023-04-01T06:01:01;1.17;;;0.77;;
34876;SDS011;21086;44.780;17.194;2023-04-01T06:03:42;0.85;;;0.60;;
34876;SDS011;21086;44.780;17.194;2023-04-01T06:06:16;2.13;;;1.00;;
34876;SDS011;21086;44.780;17.194;2023-04-01T06:08:52;2.83;;;1.42;;
34876;SDS011;21086;44.780;17.194;2023-04-01T06:11:33;2.95;;;1.58;;
34876;SDS011;21086;44.780;17.194;2023-04-01T06:47:18;3.50;;;2.22;;
34876;SDS011;21086;44.780;17.194;2023-04-01T06:54:58;4.20;;;2.38;;
34876;SDS011;21086;44.780;17.194;2023-04-01T06:57:34;2.85;;;1.80;;
34876;SDS011;21086;44.780;17.194;2023-04-01T07:00:14;8.43;;;5.80;;
34876;SDS011;21086;44.780;17.194;2023-04-01T07:02:50;7.18;;;5.03;;
34876;SDS011;21086;44.780;17.194;2023-04-01T07:05:25;7.15;;;4.25;;
34876;SDS011;21086;44.780;17.194;2023-04-01T07:07:58;4.80;;;2.60;;
34876;SDS011;21086;44.780;17.194;2023-04-01T07:13:22;3.10;;;1.80;;
34876;SDS011;21086;44.780;17.194;2023-04-01T07:15:58;0.95;;;0.55;;
34876;SDS011;21086;44.780;17.194;2023-04-01T07:18:34;1.05;;;0.43;;
34876;SDS011;21086;44.780;17.194;2023-04-01T07:21:10;0.63;;;0.35;;
34876;SDS011;21086;44.780;17.194;2023-04-01T07:23:48;0.60;;;0.43;;
34876;SDS011;21086;44.780;17.194;2023-04-01T07:26:19;1.08;;;0.70;;
34876;SDS011;21086;44.780;17.194;2023-04-01T07:28:50;1.08;;;0.80;;
34876;SDS011;21086;44.780;17.194;2023-04-01T07:34:01;1.63;;;0.85;;
34876;SDS011;21086;44.780;17.194;2023-04-01T07:50:42;1.33;;;0.85;;
34876;SDS011;21086;44.780;17.194;2023-04-01T08:04:27;0.50;;;0.40;;
34876;SDS011;21086;44.780;17.194;2023-04-01T08:15:27;0.80;;;0.52;;
34876;SDS011;21086;44.780;17.194;2023-04-01T08:20:45;1.55;;;0.80;;
34876;SDS011;21086;44.780;17.194;2023-04-01T08:23:19;0.93;;;0.70;;
34876;SDS011;21086;44.780;17.194;2023-04-01T08:33:56;1.02;;;0.63;;
34876;SDS011;21086;44.780;17.194;2023-04-01T08:36:28;0.52;;;0.30;;
34876;SDS011;21086;44.780;17.194;2023-04-01T08:39:07;0.60;;;0.40;;
34876;SDS011;21086;44.780;17.194;2023-04-01T08:44:25;1.15;;;0.70;;
34876;SDS011;21086;44.780;17.194;2023-04-01T08:53:00;1.80;;;0.98;;
34876;SDS011;21086;44.780;17.194;2023-04-01T09:12:14;2.05;;;1.40;;
34876;SDS011;21086;44.780;17.194;2023-04-01T09:25:50;0.90;;;0.45;;
34876;SDS011;21086;44.780;17.194;2023-04-01T09:28:43;0.75;;;0.30;;
34876;SDS011;21086;44.780;17.194;2023-04-01T09:37:26;0.65;;;0.50;;
34876;SDS011;21086;44.780;17.194;2023-04-01T09:51:35;2.63;;;0.90;;
34876;SDS011;21086;44.780;17.194;2023-04-01T10:25:48;0.22;;;0.20;;
34876;SDS011;21086;44.780;17.194;2023-04-01T10:36:56;0.60;;;0.43;;
34876;SDS011;21086;44.780;17.194;2023-04-01T10:39:32;1.00;;;0.35;;
34876;SDS011;21086;44.780;17.194;2023-04-01T10:51:12;0.22;;;0.22;;
34876;SDS011;21086;44.780;17.194;2023-04-01T10:56:34;0.63;;;0.30;;
34876;SDS011;21086;44.780;17.194;2023-04-01T11:21:35;0.32;;;0.13;;
34876;SDS011;21086;44.780;17.194;2023-04-01T11:35:40;0.20;;;0.20;;
34876;SDS011;21086;44.780;17.194;2023-04-01T11:44:26;0.90;;;0.28;;
34876;SDS011;21086;44.780;17.194;2023-04-01T11:55:19;0.82;;;0.43;;
34876;SDS011;21086;44.780;17.194;2023-04-01T12:11:44;0.63;;;0.10;;
34876;SDS011;21086;44.780;17.194;2023-04-01T12:14:52;1.15;;;0.20;;
34876;SDS011;21086;44.780;17.194;2023-04-01T12:17:51;0.47;;;0.10;;
34876;SDS011;21086;44.780;17.194;2023-04-01T12:22:59;0.70;;;0.20;;
34876;SDS011;21086;44.780;17.194;2023-04-01T12:36:52;0.30;;;0.30;;
34876;SDS011;21086;44.780;17.194;2023-04-01T12:45:32;0.60;;;0.20;;
34876;SDS011;21086;44.780;17.194;2023-04-01T12:48:27;0.40;;;0.28;;
34876;SDS011;21086;44.780;17.194;2023-04-01T13:02:37;1.45;;;0.20;;
34876;SDS011;21086;44.780;17.194;2023-04-01T13:05:20;0.17;;;0.10;;
34876;SDS011;21086;44.780;17.194;2023-04-01T13:08:44;0.13;;;0.10;;
34876;SDS011;21086;44.780;17.194;2023-04-01T13:10:58;0.20;;;0.10;;
34876;SDS011;21086;44.780;17.194;2023-04-01T13:30:02;1.63;;;0.35;;
34876;SDS011;21086;44.780;17.194;2023-04-01T13:43:36;0.40;;;0.20;;
34876;SDS011;21086;44.780;17.194;2023-04-01T13:46:47;0.77;;;0.20;;
34876;SDS011;21086;44.780;17.194;2023-04-01T14:04:01;0.10;;;0.10;;
34876;SDS011;21086;44.780;17.194;2023-04-01T14:11:45;0.50;;;0.20;;
34876;SDS011;21086;44.780;17.194;2023-04-01T14:14:36;0.35;;;0.10;;
34876;SDS011;21086;44.780;17.194;2023-04-01T14:20:25;2.97;;;0.25;;
34876;SDS011;21086;44.780;17.194;2023-04-01T14:26:12;0.82;;;0.30;;
34876;SDS011;21086;44.780;17.194;2023-04-01T14:36:37;0.73;;;0.47;;
34876;SDS011;21086;44.780;17.194;2023-04-01T14:45:19;0.40;;;0.30;;
34876;SDS011;21086;44.780;17.194;2023-04-01T14:47:54;1.15;;;0.40;;
34876;SDS011;21086;44.780;17.194;2023-04-01T14:50:44;2.10;;;0.40;;
34876;SDS011;21086;44.780;17.194;2023-04-01T14:55:51;0.35;;;0.30;;
34876;SDS011;21086;44.780;17.194;2023-04-01T14:58:21;1.25;;;0.77;;
34876;SDS011;21086;44.780;17.194;2023-04-01T15:00:57;1.88;;;0.45;;
34876;SDS011;21086;44.780;17.194;2023-04-01T15:03:32;1.00;;;0.50;;
34876;SDS011;21086;44.780;17.194;2023-04-01T15:12:01;1.13;;;0.30;;
34876;SDS011;21086;44.780;17.194;2023-04-01T15:45:36;2.25;;;0.45;;
34876;SDS011;21086;44.780;17.194;2023-04-01T15:48:28;2.92;;;0.55;;
34876;SDS011;21086;44.780;17.194;2023-04-01T15:51:21;0.75;;;0.45;;
34876;SDS011;21086;44.780;17.194;2023-04-01T15:54:00;0.95;;;0.60;;
34876;SDS011;21086;44.780;17.194;2023-04-01T16:02:45;2.60;;;1.70;;
34876;SDS011;21086;44.780;17.194;2023-04-01T16:08:54;1.38;;;1.00;;
34876;SDS011;21086;44.780;17.194;2023-04-01T16:14:14;2.75;;;1.60;;
34876;SDS011;21086;44.780;17.194;2023-04-01T16:19:56;3.72;;;2.25;;
34876;SDS011;21086;44.780;17.194;2023-04-01T16:22:39;9.85;;;5.22;;
34876;SDS011;21086;44.780;17.194;2023-04-01T16:38:43;4.50;;;1.95;;
34876;SDS011;21086;44.780;17.194;2023-04-01T16:41:34;1.17;;;0.80;;
34876;SDS011;21086;44.780;17.194;2023-04-01T16:46:52;2.97;;;1.98;;
34876;SDS011;21086;44.780;17.194;2023-04-01T16:55:17;3.17;;;2.10;;
34876;SDS011;21086;44.780;17.194;2023-04-01T16:57:48;3.25;;;2.33;;
34876;SDS011;21086;44.780;17.194;2023-04-01T17:00:41;1.70;;;1.08;;
34876;SDS011;21086;44.780;17.194;2023-04-01T17:03:25;2.70;;;1.70;;
34876;SDS011;21086;44.780;17.194;2023-04-01T17:06:36;2.80;;;0.80;;
34876;SDS011;21086;44.780;17.194;2023-04-01T17:18:04;3.92;;;0.88;;
34876;SDS011;21086;44.780;17.194;2023-04-01T17:20:42;3.63;;;2.47;;
34876;SDS011;21086;44.780;17.194;2023-04-01T17:23:30;2.45;;;1.48;;
34876;SDS011;21086;44.780;17.194;2023-04-01T17:26:06;1.50;;;0.70;;
34876;SDS011;21086;44.780;17.194;2023-04-01T17:28:50;2.92;;;1.80;;
34876;SDS011;21086;44.780;17.194;2023-04-01T17:34:41;1.73;;;1.27;;
34876;SDS011;21086;44.780;17.194;2023-04-01T17:37:28;2.72;;;1.88;;
34876;SDS011;21086;44.780;17.194;2023-04-01T17:40:15;3.47;;;2.58;;
34876;SDS011;21086;44.780;17.194;2023-04-01T17:42:56;5.03;;;2.53;;
34876;SDS011;21086;44.780;17.194;2023-04-01T17:45:49;3.45;;;2.28;;
34876;SDS011;21086;44.780;17.194;2023-04-01T17:59:56;2.30;;;1.58;;
34876;SDS011;21086;44.780;17.194;2023-04-01T18:07:57;0.98;;;0.60;;
34876;SDS011;21086;44.780;17.194;2023-04-01T18:13:41;5.13;;;3.38;;
34876;SDS011;21086;44.780;17.194;2023-04-01T18:18:57;3.50;;;1.95;;
34876;SDS011;21086;44.780;17.194;2023-04-01T18:21:45;2.25;;;1.40;;
34876;SDS011;21086;44.780;17.194;2023-04-01T18:27:10;1.20;;;0.80;;
34876;SDS011;21086;44.780;17.194;2023-04-01T18:29:40;1.80;;;1.10;;
34876;SDS011;21086;44.780;17.194;2023-04-01T18:32:15;2.55;;;1.40;;
34876;SDS011;21086;44.780;17.194;2023-04-01T18:38:33;3.10;;;2.25;;
34876;SDS011;21086;44.780;17.194;2023-04-01T18:44:16;8.48;;;5.45;;
34876;SDS011;21086;44.780;17.194;2023-04-01T18:50:24;8.55;;;6.55;;
34876;SDS011;21086;44.780;17.194;2023-04-01T18:55:42;11.52;;;8.23;;
34876;SDS011;21086;44.780;17.194;2023-04-01T18:58:20;22.00;;;16.05;;
34876;SDS011;21086;44.780;17.194;2023-04-01T19:03:57;13.35;;;9.32;;
34876;SDS011;21086;44.780;17.194;2023-04-01T19:09:48;27.65;;;18.52;;
34876;SDS011;21086;44.780;17.194;2023-04-01T19:28:20;12.68;;;9.20;;
34876;SDS011;21086;44.780;17.194;2023-04-01T19:42:15;12.57;;;9.00;;
34876;SDS011;21086;44.780;17.194;2023-04-01T19:50:57;14.10;;;11.50;;
34876;SDS011;21086;44.780;17.194;2023-04-01T19:56:24;14.70;;;9.80;;
34876;SDS011;21086;44.780;17.194;2023-04-01T19:59:10;13.88;;;9.48;;
34876;SDS011;21086;44.780;17.194;2023-04-01T20:01:53;9.98;;;7.53;;
34876;SDS011;21086;44.780;17.194;2023-04-01T20:04:33;11.02;;;8.02;;
34876;SDS011;21086;44.780;17.194;2023-04-01T20:07:09;8.77;;;7.03;;
34876;SDS011;21086;44.780;17.194;2023-04-01T20:14:58;9.07;;;5.50;;
34876;SDS011;21086;44.780;17.194;2023-04-01T20:20:02;10.45;;;6.00;;
34876;SDS011;21086;44.780;17.194;2023-04-01T20:25:24;5.95;;;4.60;;
34876;SDS011;21086;44.780;17.194;2023-04-01T20:27:57;7.40;;;4.65;;
34876;SDS011;21086;44.780;17.194;2023-04-01T20:36:43;8.18;;;5.80;;
34876;SDS011;21086;44.780;17.194;2023-04-01T20:39:28;13.50;;;9.75;;
34876;SDS011;21086;44.780;17.194;2023-04-01T20:44:35;10.68;;;6.65;;
34876;SDS011;21086;44.780;17.194;2023-04-01T20:47:37;8.70;;;4.38;;
34876;SDS011;21086;44.780;17.194;2023-04-01T21:02:12;7.78;;;5.65;;
34876;SDS011;21086;44.780;17.194;2023-04-01T21:05:04;15.90;;;11.07;;
34876;SDS011;21086;44.780;17.194;2023-04-01T21:07:54;20.00;;;14.13;;
34876;SDS011;21086;44.780;17.194;2023-04-01T21:11:08;16.65;;;11.52;;
34876;SDS011;21086;44.780;17.194;2023-04-01T21:27:26;17.38;;;14.15;;
34876;SDS011;21086;44.780;17.194;2023-04-01T21:33:06;16.02;;;10.93;;
34876;SDS011;21086;44.780;17.194;2023-04-01T22:13:10;17.77;;;11.93;;
34876;SDS011;21086;44.780;17.194;2023-04-01T22:19:05;21.67;;;12.15;;
34876;SDS011;21086;44.780;17.194;2023-04-01T22:32:43;14.93;;;10.55;;
34876;SDS011;21086;44.780;17.194;2023-04-01T22:40:44;14.80;;;9.75;;
34876;SDS011;21086;44.780;17.194;2023-04-01T22:48:57;13.35;;;8.05;;
34876;SDS011;21086;44.780;17.194;2023-04-01T22:51:47;13.02;;;8.85;;
34876;SDS011;21086;44.780;17.194;2023-04-01T22:56:57;11.45;;;8.77;;
34876;SDS011;21086;44.780;17.194;2023-04-01T22:59:43;13.10;;;9.65;;
34876;SDS011;21086;44.780;17.194;2023-04-01T23:02:16;16.75;;;11.07;;
34876;SDS011;21086;44.780;17.194;2023-04-01T23:04:55;16.98;;;12.43;;
34876;SDS011;21086;44.780;17.194;2023-04-01T23:10:15;18.85;;;12.25;;
34876;SDS011;21086;44.780;17.194;2023-04-01T23:13:04;15.18;;;11.27;;
34876;SDS011;21086;44.780;17.194;2023-04-01T23:15:35;15.40;;;10.68;;
34876;SDS011;21086;44.780;17.194;2023-04-01T23:29:09;15.85;;;10.88;;
34876;SDS011;21086;44.780;17.194;2023-04-01T23:31:42;14.05;;;10.70;;
34876;SDS011;21086;44.780;17.194;2023-04-01T23:36:41;12.20;;;8.52;;
34876;SDS011;21086;44.780;17.194;2023-04-01T23:39:17;11.43;;;8.95;;
34876;SDS011;21086;44.780;17.194;2023-04-01T23:41:54;12.27;;;8.52;;
34876;SDS011;21086;44.780;17.194;2023-04-01T23:44:24;12.30;;;8.68;;
34876;SDS011;21086;44.780;17.194;2023-04-01T23:46:53;11.15;;;7.95;;
34876;SDS011;21086;44.780;17.194;2023-04-01T23:49:28;9.68;;;7.28;;
34876;SDS011;21086;44.780;17.194;2023-04-01T23:52:14;11.35;;;7.82;;
34876;SDS011;21086;44.780;17.194;2023-04-01T23:57:38;10.48;;;7.70;;
